createdAt,value
2023-02-22T00:02:14.110Z,6.50
2023-02-22T00:04:40.504Z,6.18
2023-02-22T00:07:06.853Z,6.32
2023-02-22T00:09:33.163Z,7.68
2023-02-22T00:11:59.502Z,6.62
2023-02-22T00:14:28.967Z,6.30
2023-02-22T00:16:59.872Z,7.45
2023-02-22T00:19:28.134Z,6.72
2023-02-22T00:21:54.473Z,6.70
2023-02-22T00:24:24.052Z,7.47
2023-02-22T00:26:50.367Z,8.00
2023-02-22T00:29:16.703Z,7.43
2023-02-22T00:31:43.111Z,8.23
2023-02-22T00:34:09.417Z,7.32
2023-02-22T00:36:35.743Z,8.77
2023-02-22T00:39:02.068Z,7.57
2023-02-22T00:41:28.461Z,6.45
2023-02-22T00:43:54.802Z,9.18
2023-02-22T00:46:21.125Z,8.73
2023-02-22T00:48:47.432Z,6.60
2023-02-22T00:51:13.967Z,6.07
2023-02-22T00:53:40.501Z,7.20
2023-02-22T00:56:06.950Z,6.65
2023-02-22T00:58:33.848Z,7.40
2023-02-22T01:01:00.202Z,9.57
2023-02-22T01:03:26.574Z,8.05
2023-02-22T01:05:52.883Z,7.80
2023-02-22T01:08:19.238Z,7.53
2023-02-22T01:10:46.681Z,7.05
2023-02-22T01:13:13.195Z,6.95
2023-02-22T01:15:39.511Z,6.37
2023-02-22T01:18:05.852Z,8.32
2023-02-22T01:20:32.217Z,8.90
2023-02-22T01:22:58.632Z,8.27
2023-02-22T01:25:24.975Z,7.78
2023-02-22T01:27:51.502Z,6.05
2023-02-22T01:30:17.859Z,6.55
2023-02-22T01:32:44.281Z,7.57
2023-02-22T01:35:10.602Z,6.75
2023-02-22T01:37:36.918Z,6.57
2023-02-22T01:40:03.237Z,7.07
2023-02-22T01:42:29.654Z,6.05
2023-02-22T01:44:55.961Z,6.55
2023-02-22T01:47:22.289Z,7.80
2023-02-22T01:49:48.980Z,6.72
2023-02-22T01:52:15.302Z,6.97
2023-02-22T01:54:41.618Z,7.20
2023-02-22T01:57:07.942Z,6.70
2023-02-22T01:59:34.278Z,8.25
2023-02-22T02:02:00.701Z,8.38
2023-02-22T02:04:27.034Z,7.32
2023-02-22T02:06:53.527Z,6.03
2023-02-22T02:09:19.850Z,6.40
2023-02-22T02:11:46.150Z,6.85
2023-02-22T02:14:12.509Z,9.40
2023-02-22T02:16:39.225Z,6.97
2023-02-22T02:19:05.582Z,8.25
2023-02-22T02:21:32.089Z,6.53
2023-02-22T02:23:58.386Z,6.78
2023-02-22T02:26:24.728Z,8.40
2023-02-22T02:28:51.039Z,7.28
2023-02-22T02:31:17.615Z,7.97
2023-02-22T02:33:44.117Z,8.68
2023-02-22T02:36:10.426Z,8.77
2023-02-22T02:38:36.777Z,8.25
2023-02-22T02:41:03.120Z,7.68
2023-02-22T02:43:29.445Z,8.05
2023-02-22T02:45:55.814Z,7.57
2023-02-22T02:48:22.416Z,8.40
2023-02-22T02:50:48.796Z,7.55
2023-02-22T02:53:15.114Z,7.97
2023-02-22T02:55:41.422Z,7.20
2023-02-22T02:58:07.761Z,10.82
2023-02-22T03:00:39.336Z,8.68
2023-02-22T03:03:05.857Z,7.62
2023-02-22T03:05:32.171Z,8.63
2023-02-22T03:07:58.494Z,9.45
2023-02-22T03:10:24.814Z,9.45
2023-02-22T03:12:51.154Z,8.70
2023-02-22T03:15:17.452Z,9.15
2023-02-22T03:17:44.780Z,10.57
2023-02-22T03:20:11.110Z,9.98
2023-02-22T03:22:37.424Z,11.25
2023-02-22T03:25:08.917Z,10.40
2023-02-22T03:27:35.269Z,9.02
2023-02-22T03:30:01.606Z,11.38
2023-02-22T03:32:27.908Z,9.45
2023-02-22T03:34:56.835Z,10.13
2023-02-22T03:37:23.136Z,10.93
2023-02-22T03:39:49.451Z,10.52
2023-02-22T03:42:15.763Z,10.50
2023-02-22T03:44:42.079Z,10.35
2023-02-22T03:47:08.390Z,11.95
2023-02-22T03:49:35.138Z,11.50
2023-02-22T03:52:01.514Z,11.93
2023-02-22T03:54:28.434Z,10.90
2023-02-22T03:56:54.766Z,10.73
2023-02-22T03:59:25.377Z,12.55
2023-02-22T04:01:51.699Z,11.77
2023-02-22T04:04:18.577Z,11.07
2023-02-22T04:06:44.952Z,11.43
2023-02-22T04:09:11.272Z,10.70
2023-02-22T04:11:37.602Z,9.25
2023-02-22T04:14:04.107Z,11.25
2023-02-22T04:16:30.414Z,10.40
2023-02-22T04:18:56.775Z,10.02
2023-02-22T04:21:23.128Z,11.05
2023-02-22T04:23:49.471Z,11.48
2023-02-22T04:26:15.792Z,10.10
2023-02-22T04:28:42.106Z,10.05
2023-02-22T04:31:08.428Z,11.12
2023-02-22T04:33:34.775Z,10.98
2023-02-22T04:36:01.094Z,14.20
2023-02-22T04:38:27.477Z,11.88
2023-02-22T04:40:53.782Z,13.35
2023-02-22T04:43:20.110Z,11.18
2023-02-22T04:45:46.509Z,10.15
2023-02-22T04:48:12.839Z,9.00
2023-02-22T04:50:39.555Z,11.35
2023-02-22T04:53:05.875Z,13.13
2023-02-22T04:55:32.249Z,13.05
2023-02-22T04:57:58.564Z,10.88
2023-02-22T05:00:24.872Z,11.05
2023-02-22T05:02:51.220Z,10.25
2023-02-22T05:05:17.576Z,12.25
2023-02-22T05:07:43.919Z,11.60
2023-02-22T05:10:10.236Z,14.50
2023-02-22T05:12:37.157Z,10.63
2023-02-22T05:15:03.473Z,9.73
2023-02-22T05:17:29.797Z,12.95
2023-02-22T05:19:56.111Z,9.32
2023-02-22T05:22:22.425Z,13.10
2023-02-22T05:24:48.746Z,10.57
2023-02-22T05:27:15.098Z,10.68
2023-02-22T05:29:41.712Z,11.23
2023-02-22T05:32:08.077Z,12.13
2023-02-22T05:34:34.459Z,11.15
2023-02-22T05:37:00.770Z,11.05
2023-02-22T05:39:27.093Z,10.15
2023-02-22T05:41:53.459Z,12.65
2023-02-22T05:44:19.753Z,9.20
2023-02-22T05:46:46.112Z,10.40
2023-02-22T05:49:12.485Z,10.20
2023-02-22T05:51:38.813Z,10.65
2023-02-22T05:54:05.150Z,10.05
2023-02-22T05:56:31.567Z,9.68
2023-02-22T05:58:58.534Z,11.15
2023-02-22T06:01:24.865Z,10.23
2023-02-22T06:03:51.173Z,8.88
2023-02-22T06:06:17.503Z,9.07
2023-02-22T06:08:43.838Z,12.70
2023-02-22T06:11:10.148Z,10.65
2023-02-22T06:13:36.495Z,12.10
2023-02-22T06:16:02.868Z,10.07
2023-02-22T06:18:31.320Z,15.35
2023-02-22T06:20:57.711Z,11.43
2023-02-22T06:23:24.074Z,14.32
2023-02-22T06:25:50.403Z,12.77
2023-02-22T06:28:16.705Z,9.68
2023-02-22T06:30:43.188Z,13.95
2023-02-22T06:33:09.601Z,14.65
2023-02-22T06:35:35.918Z,14.10
2023-02-22T06:38:02.436Z,11.75
2023-02-22T06:40:29.718Z,12.35
2023-02-22T06:42:56.085Z,11.93
2023-02-22T06:45:22.431Z,10.45
2023-02-22T06:47:49.805Z,12.27
2023-02-22T06:50:16.123Z,18.40
2023-02-22T06:52:42.519Z,12.93
2023-02-22T06:55:08.841Z,14.85
2023-02-22T06:57:35.150Z,14.70
2023-02-22T07:00:01.464Z,13.25
2023-02-22T07:02:27.804Z,13.05
2023-02-22T07:04:54.143Z,13.32
2023-02-22T07:07:20.439Z,13.02
2023-02-22T07:09:46.927Z,12.27
2023-02-22T07:12:13.241Z,15.25
2023-02-22T07:14:39.619Z,13.80
2023-02-22T07:17:05.937Z,14.13
2023-02-22T07:19:32.270Z,13.38
2023-02-22T07:21:59.528Z,16.50
2023-02-22T07:24:26.697Z,13.65
2023-02-22T07:26:54.133Z,14.73
2023-02-22T07:29:22.604Z,11.85
2023-02-22T07:31:48.975Z,12.70
2023-02-22T07:34:15.302Z,15.57
2023-02-22T07:36:41.629Z,12.68
2023-02-22T07:39:08.872Z,13.68
2023-02-22T07:41:35.212Z,13.75
2023-02-22T07:44:01.529Z,13.70
2023-02-22T07:46:27.849Z,12.25
2023-02-22T07:48:54.168Z,13.02
2023-02-22T07:51:20.900Z,11.80
2023-02-22T07:53:47.267Z,14.43
2023-02-22T07:56:13.589Z,11.45
2023-02-22T07:58:39.994Z,14.15
2023-02-22T08:01:06.403Z,13.05
2023-02-22T08:03:34.454Z,12.77
2023-02-22T08:06:00.839Z,11.77
2023-02-22T08:08:27.220Z,12.85
2023-02-22T08:10:53.552Z,11.98
2023-02-22T08:13:19.935Z,14.77
2023-02-22T08:15:47.316Z,12.50
2023-02-22T08:18:13.863Z,14.70
2023-02-22T08:20:40.221Z,15.43
2023-02-22T08:23:06.551Z,15.00
2023-02-22T08:25:33.179Z,12.75
2023-02-22T08:28:01.308Z,13.52
2023-02-22T08:30:27.699Z,14.70
2023-02-22T08:32:54.328Z,13.60
2023-02-22T08:35:20.677Z,13.25
2023-02-22T08:37:47.013Z,12.70
2023-02-22T08:40:14.815Z,12.82
2023-02-22T08:42:41.316Z,19.12
2023-02-22T08:45:07.959Z,14.68
2023-02-22T08:47:34.398Z,13.02
2023-02-22T08:50:00.761Z,14.85
2023-02-22T08:52:27.088Z,15.85
2023-02-22T08:54:53.420Z,14.48
2023-02-22T08:57:21.669Z,14.48
2023-02-22T08:59:48.202Z,15.32
2023-02-22T09:02:14.550Z,17.10
2023-02-22T09:04:40.869Z,15.80
2023-02-22T09:07:07.275Z,15.98
2023-02-22T09:09:33.608Z,16.05
2023-02-22T09:11:59.911Z,17.00
2023-02-22T09:14:26.311Z,16.15
2023-02-22T09:16:52.690Z,20.25
2023-02-22T09:19:19.088Z,16.12
2023-02-22T09:21:45.418Z,16.60
2023-02-22T09:24:12.137Z,19.58
2023-02-22T09:26:39.531Z,18.17
2023-02-22T09:29:05.829Z,21.17
2023-02-22T09:31:32.285Z,19.58
2023-02-22T09:33:58.697Z,19.55
2023-02-22T09:36:26.231Z,14.77
2023-02-22T09:38:52.998Z,19.33
2023-02-22T09:41:19.857Z,17.08
2023-02-22T09:43:46.169Z,16.77
2023-02-22T09:46:13.614Z,18.35
2023-02-22T09:48:40.172Z,18.00
2023-02-22T09:51:06.524Z,18.15
2023-02-22T09:53:32.862Z,19.55
2023-02-22T09:55:59.203Z,17.25
2023-02-22T09:58:25.501Z,17.67
2023-02-22T10:00:53.970Z,16.85
2023-02-22T10:03:21.455Z,17.77
2023-02-22T10:05:48.035Z,15.20
2023-02-22T10:08:14.390Z,17.02
2023-02-22T10:10:40.750Z,15.25
2023-02-22T10:13:07.141Z,15.05
2023-02-22T10:15:34.452Z,17.10
2023-02-22T10:18:00.781Z,14.60
2023-02-22T10:20:28.726Z,16.05
2023-02-22T10:22:56.747Z,15.85
2023-02-22T10:25:23.150Z,14.90
2023-02-22T10:27:49.591Z,14.07
2023-02-22T10:30:24.507Z,16.35
2023-02-22T10:32:51.514Z,13.52
2023-02-22T10:35:18.268Z,14.02
2023-02-22T10:37:44.649Z,12.05
2023-02-22T10:40:11.640Z,12.43
2023-02-22T10:42:37.978Z,15.40
2023-02-22T10:45:04.297Z,13.55
2023-02-22T10:47:30.738Z,10.88
2023-02-22T10:49:57.107Z,12.25
2023-02-22T10:52:23.445Z,11.73
2023-02-22T10:54:49.788Z,10.48
2023-02-22T10:57:16.314Z,9.35
2023-02-22T10:59:42.650Z,10.45
2023-02-22T11:02:09.057Z,9.02
2023-02-22T11:04:35.373Z,9.32
2023-02-22T11:07:01.859Z,9.80
2023-02-22T11:09:29.121Z,11.38
2023-02-22T11:11:55.784Z,8.52
2023-02-22T11:14:22.276Z,11.12
2023-02-22T11:16:48.660Z,8.73
2023-02-22T11:19:15.009Z,7.55
2023-02-22T11:21:41.366Z,8.30
2023-02-22T11:24:10.846Z,9.48
2023-02-22T11:26:37.524Z,9.32
2023-02-22T11:29:03.873Z,8.82
2023-02-22T11:31:30.417Z,8.05
2023-02-22T11:36:22.885Z,6.40
2023-02-22T11:38:49.223Z,8.90
2023-02-22T11:41:15.851Z,7.45
2023-02-22T11:43:42.496Z,6.45
2023-02-22T11:46:08.830Z,6.05
2023-02-22T11:48:36.760Z,6.35
2023-02-22T11:51:03.592Z,6.45
2023-02-22T11:53:29.986Z,6.25
2023-02-22T11:55:56.324Z,6.30
2023-02-22T11:58:22.652Z,5.70
2023-02-22T12:00:48.961Z,6.53
2023-02-22T12:03:15.345Z,5.97
2023-02-22T12:05:42.779Z,6.20
2023-02-22T12:08:19.254Z,5.75
2023-02-22T12:10:47.120Z,6.55
2023-02-22T12:13:13.424Z,5.55
2023-02-22T12:15:40.351Z,4.90
2023-02-22T12:18:06.789Z,4.85
2023-02-22T12:20:33.167Z,5.62
2023-02-22T12:23:00.974Z,4.90
2023-02-22T12:25:29.558Z,6.32
2023-02-22T12:27:56.015Z,5.87
2023-02-22T12:30:23.764Z,5.28
2023-02-22T12:32:50.555Z,5.87
2023-02-22T12:35:16.939Z,7.53
2023-02-22T12:37:44.214Z,5.00
2023-02-22T12:40:13.532Z,4.72
2023-02-22T12:42:39.998Z,5.72
2023-02-22T12:45:08.270Z,5.15
2023-02-22T12:47:35.652Z,4.78
2023-02-22T12:50:01.967Z,4.47
2023-02-22T12:52:28.290Z,5.62
2023-02-22T12:54:56.285Z,6.50
2023-02-22T12:57:22.722Z,5.05
2023-02-22T12:59:49.122Z,4.60
2023-02-22T13:02:15.472Z,4.62
2023-02-22T13:04:41.788Z,3.65
2023-02-22T13:07:08.116Z,4.72
2023-02-22T13:09:34.539Z,4.00
2023-02-22T13:12:00.954Z,4.00
2023-02-22T13:14:27.293Z,3.75
2023-02-22T13:16:53.631Z,4.30
2023-02-22T13:19:19.950Z,5.22
2023-02-22T13:21:46.355Z,4.72
2023-02-22T13:24:13.657Z,4.28
2023-02-22T13:26:40.021Z,4.12
2023-02-22T13:29:08.783Z,4.47
2023-02-22T13:31:36.869Z,4.15
2023-02-22T13:34:04.589Z,4.20
2023-02-22T13:36:30.920Z,5.37
2023-02-22T13:38:57.401Z,3.87
2023-02-22T13:41:23.738Z,4.93
2023-02-22T13:43:50.061Z,3.87
2023-02-22T13:46:18.340Z,5.72
2023-02-22T13:48:44.932Z,3.75
2023-02-22T13:51:11.258Z,3.83
2023-02-22T13:53:37.591Z,3.53
2023-02-22T13:56:03.949Z,3.47
2023-02-22T13:58:30.331Z,3.53
2023-02-22T14:00:56.684Z,4.18
2023-02-22T14:03:24.171Z,4.05
2023-02-22T14:05:51.156Z,4.97
2023-02-22T14:08:17.622Z,6.43
2023-02-22T14:10:43.937Z,6.62
2023-02-22T14:13:10.749Z,6.35
2023-02-22T14:15:37.058Z,5.50
2023-02-22T14:18:03.390Z,4.85
2023-02-22T14:20:35.226Z,4.72
2023-02-22T14:23:01.817Z,5.45
2023-02-22T14:25:28.658Z,4.75
2023-02-22T14:27:55.013Z,7.35
2023-02-22T14:30:24.908Z,4.30
2023-02-22T14:32:52.452Z,5.15
2023-02-22T14:35:27.326Z,5.75
2023-02-22T14:37:56.546Z,5.28
2023-02-22T14:40:25.904Z,4.43
2023-02-22T14:42:52.308Z,3.58
2023-02-22T14:45:18.637Z,4.28
2023-02-22T14:47:49.610Z,3.55
2023-02-22T14:50:16.057Z,3.78
2023-02-22T14:52:42.376Z,4.35
2023-02-22T14:55:08.689Z,3.35
2023-02-22T14:57:39.120Z,6.22
2023-02-22T15:00:20.729Z,10.35
2023-02-22T15:02:47.132Z,9.82
2023-02-22T15:05:14.110Z,12.73
2023-02-22T15:07:40.454Z,10.68
2023-02-22T15:10:06.894Z,11.27
2023-02-22T15:12:33.248Z,10.10
2023-02-22T15:14:59.575Z,12.65
2023-02-22T15:17:25.906Z,11.77
2023-02-22T15:19:52.245Z,14.38
2023-02-22T15:22:18.567Z,12.00
2023-02-22T15:24:44.899Z,11.80
2023-02-22T15:27:11.210Z,11.75
2023-02-22T15:29:37.586Z,11.27
2023-02-22T15:32:04.099Z,11.80
2023-02-22T15:34:30.450Z,12.27
2023-02-22T15:36:57.787Z,13.10
2023-02-22T15:39:27.306Z,12.23
2023-02-22T15:41:53.657Z,11.82
2023-02-22T15:44:24.267Z,10.07
2023-02-22T15:46:50.813Z,12.73
2023-02-22T15:49:18.009Z,12.23
2023-02-22T15:51:49.221Z,12.48
2023-02-22T15:54:26.512Z,12.70
2023-02-22T15:56:56.750Z,11.23
2023-02-22T15:59:23.952Z,13.18
2023-02-22T16:01:50.380Z,12.05
2023-02-22T16:04:19.036Z,10.27
2023-02-22T16:06:45.352Z,12.75
2023-02-22T16:09:11.746Z,10.80
2023-02-22T16:11:40.461Z,13.25
2023-02-22T16:14:06.816Z,12.60
2023-02-22T16:16:33.185Z,11.00
2023-02-22T16:18:59.529Z,12.00
2023-02-22T16:21:25.827Z,14.38
2023-02-22T16:23:52.235Z,12.32
2023-02-22T16:26:18.556Z,11.90
2023-02-22T16:28:44.877Z,11.52
2023-02-22T16:31:11.323Z,11.35
2023-02-22T16:33:37.697Z,11.45
2023-02-22T16:36:04.135Z,13.75
2023-02-22T16:38:34.011Z,11.07
2023-02-22T16:41:00.333Z,10.77
2023-02-22T16:43:27.601Z,11.05
2023-02-22T16:45:54.070Z,14.35
2023-02-22T16:48:20.861Z,15.60
2023-02-22T16:50:47.183Z,11.35
2023-02-22T16:53:13.593Z,12.65
2023-02-22T16:55:39.904Z,13.02
2023-02-22T16:58:06.262Z,13.57
2023-02-22T17:00:32.757Z,12.50
2023-02-22T17:02:59.107Z,13.43
2023-02-22T17:05:25.495Z,16.30
2023-02-22T17:07:51.845Z,13.02
2023-02-22T17:10:18.167Z,12.85
2023-02-22T17:12:44.483Z,14.38
2023-02-22T17:15:10.800Z,15.05
2023-02-22T17:17:37.103Z,14.13
2023-02-22T17:20:11.429Z,12.70
2023-02-22T17:22:37.769Z,13.00
2023-02-22T17:25:06.438Z,12.70
2023-02-22T17:27:33.476Z,13.55
2023-02-22T17:29:59.806Z,11.98
2023-02-22T17:32:26.184Z,10.45
2023-02-22T17:34:52.597Z,10.95
2023-02-22T17:37:18.940Z,10.02
2023-02-22T17:39:45.254Z,12.32
2023-02-22T17:42:11.613Z,9.70
2023-02-22T17:44:37.981Z,9.35
2023-02-22T17:47:04.303Z,11.23
2023-02-22T17:49:30.701Z,12.82
2023-02-22T17:51:57.020Z,10.77
2023-02-22T17:54:23.339Z,14.05
2023-02-22T17:56:49.636Z,11.02
2023-02-22T17:59:15.959Z,10.70
2023-02-22T18:01:44.050Z,10.25
2023-02-22T18:04:10.467Z,12.23
2023-02-22T18:06:38.213Z,9.95
2023-02-22T18:09:10.603Z,10.02
2023-02-22T18:11:37.277Z,11.43
2023-02-22T18:14:03.980Z,11.40
2023-02-22T18:16:33.047Z,12.48
2023-02-22T18:19:01.665Z,11.02
2023-02-22T18:21:28.092Z,10.32
2023-02-22T18:23:55.049Z,10.60
2023-02-22T18:26:21.451Z,10.45
2023-02-22T18:28:50.950Z,10.98
2023-02-22T18:31:17.351Z,10.88
2023-02-22T18:33:43.684Z,9.85
2023-02-22T18:36:11.538Z,10.75
2023-02-22T18:38:42.755Z,9.57
2023-02-22T18:41:10.192Z,9.95
2023-02-22T18:43:36.509Z,11.15
2023-02-22T18:46:02.832Z,10.65
2023-02-22T18:48:29.150Z,10.32
2023-02-22T18:50:55.483Z,9.75
2023-02-22T18:53:21.834Z,13.38
2023-02-22T18:55:48.174Z,12.63
2023-02-22T18:58:14.502Z,17.30
2023-02-22T19:00:40.825Z,15.68
2023-02-22T19:03:07.281Z,19.70
2023-02-22T19:05:33.794Z,16.33
2023-02-22T19:08:04.201Z,21.25
2023-02-22T19:10:30.512Z,15.27
2023-02-22T19:12:56.866Z,14.15
2023-02-22T19:15:26.253Z,13.18
2023-02-22T19:17:56.320Z,14.00
2023-02-22T19:20:22.703Z,13.18
2023-02-22T19:22:49.438Z,14.13
2023-02-22T19:25:15.751Z,12.93
2023-02-22T19:27:44.470Z,12.27
2023-02-22T19:30:11.163Z,14.23
2023-02-22T19:32:38.104Z,15.90
2023-02-22T19:35:06.927Z,13.93
2023-02-22T19:37:38.199Z,13.95
2023-02-22T19:40:06.825Z,16.00
2023-02-22T19:42:33.579Z,18.80
2023-02-22T19:44:59.933Z,15.55
2023-02-22T19:47:26.251Z,16.50
2023-02-22T19:49:58.261Z,16.17
2023-02-22T19:52:28.340Z,15.95
2023-02-22T19:54:58.214Z,17.77
2023-02-22T19:57:24.916Z,18.37
2023-02-22T19:59:51.253Z,15.55
2023-02-22T20:02:17.855Z,13.57
2023-02-22T20:04:44.264Z,15.10
2023-02-22T20:07:14.187Z,15.48
2023-02-22T20:09:40.514Z,13.15
2023-02-22T20:12:06.855Z,14.50
2023-02-22T20:14:34.271Z,16.27
2023-02-22T20:17:00.612Z,12.82
2023-02-22T20:19:26.946Z,15.43
2023-02-22T20:21:55.616Z,13.80
2023-02-22T20:24:21.984Z,14.48
2023-02-22T20:26:48.381Z,12.10
2023-02-22T20:29:14.699Z,14.10
2023-02-22T20:31:41.402Z,13.00
2023-02-22T20:34:11.337Z,15.73
2023-02-22T20:36:37.773Z,12.25
2023-02-22T20:39:07.517Z,12.00
2023-02-22T20:41:33.860Z,13.10
2023-02-22T20:44:00.527Z,13.73
2023-02-22T20:46:26.844Z,13.38
2023-02-22T20:48:53.165Z,16.60
2023-02-22T20:51:19.768Z,13.93
2023-02-22T20:53:46.292Z,12.55
2023-02-22T20:56:12.592Z,14.57
2023-02-22T20:58:38.929Z,15.35
2023-02-22T21:01:05.317Z,13.57
2023-02-22T21:03:32.480Z,13.38
2023-02-22T21:05:58.826Z,12.23
2023-02-22T21:08:25.256Z,14.05
2023-02-22T21:10:51.645Z,14.40
2023-02-22T21:13:17.962Z,14.13
2023-02-22T21:15:47.137Z,15.38
2023-02-22T21:18:13.487Z,14.95
2023-02-22T21:20:41.164Z,13.45
2023-02-22T21:23:08.362Z,13.75
2023-02-22T21:25:34.689Z,13.38
2023-02-22T21:28:01.023Z,15.95
2023-02-22T21:30:27.357Z,15.00
2023-02-22T21:32:54.014Z,13.32
2023-02-22T21:35:21.513Z,14.20
2023-02-22T21:37:47.840Z,13.15
2023-02-22T21:40:19.224Z,14.60
2023-02-22T21:42:48.102Z,14.52
2023-02-22T21:45:15.124Z,13.73
2023-02-22T21:47:41.439Z,13.50
2023-02-22T21:50:10.347Z,14.70
2023-02-22T21:52:37.699Z,13.27
2023-02-22T21:55:04.039Z,13.82
2023-02-22T21:57:30.349Z,15.85
2023-02-22T21:59:56.684Z,13.80
2023-02-22T22:02:23.025Z,14.57
2023-02-22T22:04:50.357Z,13.40
2023-02-22T22:07:18.540Z,13.57
2023-02-22T22:09:44.888Z,13.45
2023-02-22T22:12:11.721Z,15.30
2023-02-22T22:14:38.103Z,13.00
2023-02-22T22:17:05.720Z,12.73
2023-02-22T22:19:33.726Z,13.00
2023-02-22T22:22:00.087Z,15.30
2023-02-22T22:24:28.670Z,13.38
2023-02-22T22:26:55.061Z,14.57
2023-02-22T22:29:21.379Z,14.05
2023-02-22T22:31:47.954Z,15.68
2023-02-22T22:34:14.367Z,12.82
2023-02-22T22:36:40.734Z,14.20
2023-02-22T22:39:13.107Z,13.68
2023-02-22T22:41:39.426Z,13.00
2023-02-22T22:44:06.314Z,13.98
2023-02-22T22:46:32.683Z,14.57
2023-02-22T22:49:00.541Z,13.93
2023-02-22T22:51:26.868Z,13.75
2023-02-22T22:53:57.864Z,14.98
2023-02-22T22:56:26.923Z,14.45
2023-02-22T22:58:53.229Z,14.38
2023-02-22T23:01:20.138Z,13.15
2023-02-22T23:03:55.285Z,13.45
2023-02-22T23:06:25.033Z,15.15
2023-02-22T23:08:53.498Z,14.73
2023-02-22T23:11:19.950Z,13.75
2023-02-22T23:13:46.338Z,13.70
2023-02-22T23:16:12.813Z,14.60
2023-02-22T23:18:39.324Z,15.93
2023-02-22T23:21:06.376Z,14.65
2023-02-22T23:23:33.309Z,13.98
2023-02-22T23:25:59.763Z,16.30
2023-02-22T23:28:26.094Z,17.60
2023-02-22T23:30:52.472Z,13.32
2023-02-22T23:33:18.828Z,13.90
2023-02-22T23:35:46.602Z,15.23
2023-02-22T23:38:12.922Z,15.05
2023-02-22T23:40:39.244Z,15.18
2023-02-22T23:43:06.883Z,14.20
2023-02-22T23:45:38.590Z,14.02
2023-02-22T23:48:04.940Z,16.95
2023-02-22T23:50:31.274Z,13.80
2023-02-22T23:52:57.610Z,14.15
2023-02-22T23:55:24.291Z,15.25
2023-02-22T23:57:50.602Z,13.25
